sensor_id;sensor_type;location;lat;lon;timestamp;P1;durP1;ratioP1;P2;durP2;ratioP2
39448;SDS011;25151;45.566;9.382;2022-07-29T00:02:45;5.45;;;1.70;;
39448;SDS011;25151;45.566;9.382;2022-07-29T00:05:46;4.85;;;1.80;;
39448;SDS011;25151;45.566;9.382;2022-07-29T00:08:47;2.75;;;1.60;;
39448;SDS011;25151;45.566;9.382;2022-07-29T00:11:47;3.53;;;1.80;;
39448;SDS011;25151;45.566;9.382;2022-07-29T00:14:48;3.35;;;1.45;;
39448;SDS011;25151;45.566;9.382;2022-07-29T00:17:49;4.55;;;1.77;;
39448;SDS011;25151;45.566;9.382;2022-07-29T00:20:50;2.45;;;1.50;;
39448;SDS011;25151;45.566;9.382;2022-07-29T00:23:51;2.72;;;1.70;;
39448;SDS011;25151;45.566;9.382;2022-07-29T00:26:51;2.83;;;1.92;;
39448;SDS011;25151;45.566;9.382;2022-07-29T00:29:52;3.92;;;2.03;;
39448;SDS011;25151;45.566;9.382;2022-07-29T00:32:53;3.05;;;1.80;;
39448;SDS011;25151;45.566;9.382;2022-07-29T00:35:53;2.55;;;1.70;;
39448;SDS011;25151;45.566;9.382;2022-07-29T00:38:54;3.95;;;1.60;;
39448;SDS011;25151;45.566;9.382;2022-07-29T00:41:55;3.58;;;1.70;;
39448;SDS011;25151;45.566;9.382;2022-07-29T00:44:56;2.58;;;1.50;;
39448;SDS011;25151;45.566;9.382;2022-07-29T00:48:00;4.10;;;2.40;;
39448;SDS011;25151;45.566;9.382;2022-07-29T00:51:04;2.13;;;1.50;;
39448;SDS011;25151;45.566;9.382;2022-07-29T00:54:06;2.28;;;1.48;;
39448;SDS011;25151;45.566;9.382;2022-07-29T00:57:07;2.53;;;1.50;;
39448;SDS011;25151;45.566;9.382;2022-07-29T01:00:11;2.15;;;1.60;;
39448;SDS011;25151;45.566;9.382;2022-07-29T01:03:18;2.90;;;1.67;;
39448;SDS011;25151;45.566;9.382;2022-07-29T01:06:19;2.60;;;1.40;;
39448;SDS011;25151;45.566;9.382;2022-07-29T01:09:20;2.63;;;1.88;;
39448;SDS011;25151;45.566;9.382;2022-07-29T01:12:25;4.57;;;1.50;;
39448;SDS011;25151;45.566;9.382;2022-07-29T01:15:28;3.00;;;1.88;;
39448;SDS011;25151;45.566;9.382;2022-07-29T01:18:34;3.50;;;1.88;;
39448;SDS011;25151;45.566;9.382;2022-07-29T01:31:25;2.55;;;1.65;;
39448;SDS011;25151;45.566;9.382;2022-07-29T01:34:49;4.82;;;1.80;;
39448;SDS011;25151;45.566;9.382;2022-07-29T01:41:05;2.80;;;1.35;;
39448;SDS011;25151;45.566;9.382;2022-07-29T01:44:14;3.10;;;1.60;;
39448;SDS011;25151;45.566;9.382;2022-07-29T01:47:20;2.33;;;1.30;;
39448;SDS011;25151;45.566;9.382;2022-07-29T01:50:33;3.28;;;1.58;;
39448;SDS011;25151;45.566;9.382;2022-07-29T01:56:45;1.77;;;1.30;;
39448;SDS011;25151;45.566;9.382;2022-07-29T01:59:49;2.17;;;1.65;;
39448;SDS011;25151;45.566;9.382;2022-07-29T02:02:53;2.28;;;1.40;;
39448;SDS011;25151;45.566;9.382;2022-07-29T02:05:55;2.00;;;1.45;;
39448;SDS011;25151;45.566;9.382;2022-07-29T02:09:01;3.08;;;1.95;;
39448;SDS011;25151;45.566;9.382;2022-07-29T02:12:03;2.40;;;1.60;;
39448;SDS011;25151;45.566;9.382;2022-07-29T02:15:06;3.40;;;1.98;;
39448;SDS011;25151;45.566;9.382;2022-07-29T02:18:09;2.22;;;1.60;;
39448;SDS011;25151;45.566;9.382;2022-07-29T02:21:13;4.03;;;2.33;;
39448;SDS011;25151;45.566;9.382;2022-07-29T02:24:19;3.10;;;1.60;;
39448;SDS011;25151;45.566;9.382;2022-07-29T02:27:21;3.85;;;1.92;;
39448;SDS011;25151;45.566;9.382;2022-07-29T02:30:23;2.53;;;2.05;;
39448;SDS011;25151;45.566;9.382;2022-07-29T02:33:26;3.42;;;2.35;;
39448;SDS011;25151;45.566;9.382;2022-07-29T02:36:30;3.28;;;2.30;;
39448;SDS011;25151;45.566;9.382;2022-07-29T02:39:33;3.90;;;2.42;;
39448;SDS011;25151;45.566;9.382;2022-07-29T02:42:34;7.65;;;2.22;;
39448;SDS011;25151;45.566;9.382;2022-07-29T02:45:37;2.20;;;1.90;;
39448;SDS011;25151;45.566;9.382;2022-07-29T02:48:41;4.28;;;2.03;;
39448;SDS011;25151;45.566;9.382;2022-07-29T02:52:03;4.00;;;2.35;;
39448;SDS011;25151;45.566;9.382;2022-07-29T02:58:34;5.75;;;2.55;;
39448;SDS011;25151;45.566;9.382;2022-07-29T03:01:40;3.03;;;2.08;;
39448;SDS011;25151;45.566;9.382;2022-07-29T03:04:43;5.18;;;2.42;;
39448;SDS011;25151;45.566;9.382;2022-07-29T03:07:51;3.53;;;2.13;;
39448;SDS011;25151;45.566;9.382;2022-07-29T03:10:55;5.45;;;2.60;;
39448;SDS011;25151;45.566;9.382;2022-07-29T03:13:57;4.90;;;2.92;;
39448;SDS011;25151;45.566;9.382;2022-07-29T03:16:58;5.05;;;3.03;;
39448;SDS011;25151;45.566;9.382;2022-07-29T03:20:00;4.30;;;2.55;;
39448;SDS011;25151;45.566;9.382;2022-07-29T03:23:01;4.68;;;2.85;;
39448;SDS011;25151;45.566;9.382;2022-07-29T03:26:02;3.65;;;2.53;;
39448;SDS011;25151;45.566;9.382;2022-07-29T03:29:03;4.43;;;2.40;;
39448;SDS011;25151;45.566;9.382;2022-07-29T03:32:04;2.65;;;2.33;;
39448;SDS011;25151;45.566;9.382;2022-07-29T03:35:06;13.32;;;2.80;;
39448;SDS011;25151;45.566;9.382;2022-07-29T03:38:07;5.13;;;2.95;;
39448;SDS011;25151;45.566;9.382;2022-07-29T03:41:09;6.15;;;2.70;;
39448;SDS011;25151;45.566;9.382;2022-07-29T03:44:11;5.80;;;2.58;;
39448;SDS011;25151;45.566;9.382;2022-07-29T03:47:14;4.18;;;2.78;;
39448;SDS011;25151;45.566;9.382;2022-07-29T03:50:17;5.22;;;2.90;;
39448;SDS011;25151;45.566;9.382;2022-07-29T03:53:21;5.47;;;2.92;;
39448;SDS011;25151;45.566;9.382;2022-07-29T03:56:22;4.57;;;2.53;;
39448;SDS011;25151;45.566;9.382;2022-07-29T03:59:24;9.25;;;3.50;;
39448;SDS011;25151;45.566;9.382;2022-07-29T04:02:29;5.07;;;3.22;;
39448;SDS011;25151;45.566;9.382;2022-07-29T04:05:30;6.13;;;3.10;;
39448;SDS011;25151;45.566;9.382;2022-07-29T04:08:31;7.07;;;2.85;;
39448;SDS011;25151;45.566;9.382;2022-07-29T04:11:33;5.22;;;3.28;;
39448;SDS011;25151;45.566;9.382;2022-07-29T04:14:34;6.75;;;3.10;;
39448;SDS011;25151;45.566;9.382;2022-07-29T04:17:35;6.93;;;3.15;;
39448;SDS011;25151;45.566;9.382;2022-07-29T04:20:35;5.10;;;2.88;;
39448;SDS011;25151;45.566;9.382;2022-07-29T04:23:36;6.40;;;3.03;;
39448;SDS011;25151;45.566;9.382;2022-07-29T04:26:37;5.43;;;3.25;;
39448;SDS011;25151;45.566;9.382;2022-07-29T04:29:37;5.95;;;3.25;;
39448;SDS011;25151;45.566;9.382;2022-07-29T04:32:38;4.68;;;2.95;;
39448;SDS011;25151;45.566;9.382;2022-07-29T04:35:38;6.40;;;3.30;;
39448;SDS011;25151;45.566;9.382;2022-07-29T04:38:39;5.57;;;3.20;;
39448;SDS011;25151;45.566;9.382;2022-07-29T04:41:39;5.18;;;3.47;;
39448;SDS011;25151;45.566;9.382;2022-07-29T04:44:40;6.80;;;3.50;;
39448;SDS011;25151;45.566;9.382;2022-07-29T04:47:41;7.35;;;3.63;;
39448;SDS011;25151;45.566;9.382;2022-07-29T04:50:41;5.00;;;3.10;;
39448;SDS011;25151;45.566;9.382;2022-07-29T04:53:42;7.22;;;3.70;;
39448;SDS011;25151;45.566;9.382;2022-07-29T04:56:43;5.65;;;4.03;;
39448;SDS011;25151;45.566;9.382;2022-07-29T04:59:43;5.80;;;3.78;;
39448;SDS011;25151;45.566;9.382;2022-07-29T05:02:45;5.38;;;4.32;;
39448;SDS011;25151;45.566;9.382;2022-07-29T05:05:46;9.55;;;4.13;;
39448;SDS011;25151;45.566;9.382;2022-07-29T05:08:46;5.72;;;3.72;;
39448;SDS011;25151;45.566;9.382;2022-07-29T05:11:47;5.93;;;4.22;;
39448;SDS011;25151;45.566;9.382;2022-07-29T05:14:47;7.95;;;4.28;;
39448;SDS011;25151;45.566;9.382;2022-07-29T05:17:48;13.77;;;4.15;;
39448;SDS011;25151;45.566;9.382;2022-07-29T05:20:49;5.95;;;3.83;;
39448;SDS011;25151;45.566;9.382;2022-07-29T05:23:49;5.18;;;3.83;;
39448;SDS011;25151;45.566;9.382;2022-07-29T05:26:51;5.68;;;4.28;;
39448;SDS011;25151;45.566;9.382;2022-07-29T05:29:52;4.20;;;3.70;;
39448;SDS011;25151;45.566;9.382;2022-07-29T05:32:53;5.57;;;3.58;;
39448;SDS011;25151;45.566;9.382;2022-07-29T05:35:55;4.78;;;3.38;;
39448;SDS011;25151;45.566;9.382;2022-07-29T05:38:57;7.60;;;4.00;;
39448;SDS011;25151;45.566;9.382;2022-07-29T05:41:58;5.45;;;3.55;;
39448;SDS011;25151;45.566;9.382;2022-07-29T05:44:58;5.88;;;3.58;;
39448;SDS011;25151;45.566;9.382;2022-07-29T05:48:00;4.13;;;2.85;;
39448;SDS011;25151;45.566;9.382;2022-07-29T05:51:00;4.25;;;2.40;;
39448;SDS011;25151;45.566;9.382;2022-07-29T05:54:01;3.33;;;2.33;;
39448;SDS011;25151;45.566;9.382;2022-07-29T05:57:02;6.43;;;2.47;;
39448;SDS011;25151;45.566;9.382;2022-07-29T06:00:03;4.47;;;1.85;;
39448;SDS011;25151;45.566;9.382;2022-07-29T06:03:04;6.00;;;1.55;;
39448;SDS011;25151;45.566;9.382;2022-07-29T06:06:05;6.13;;;1.90;;
39448;SDS011;25151;45.566;9.382;2022-07-29T06:09:07;4.75;;;1.80;;
39448;SDS011;25151;45.566;9.382;2022-07-29T06:12:08;4.53;;;1.88;;
39448;SDS011;25151;45.566;9.382;2022-07-29T06:15:09;4.05;;;1.52;;
39448;SDS011;25151;45.566;9.382;2022-07-29T06:18:11;3.13;;;1.85;;
39448;SDS011;25151;45.566;9.382;2022-07-29T06:21:13;9.90;;;1.55;;
39448;SDS011;25151;45.566;9.382;2022-07-29T06:24:14;3.65;;;1.70;;
39448;SDS011;25151;45.566;9.382;2022-07-29T06:27:15;3.88;;;2.00;;
39448;SDS011;25151;45.566;9.382;2022-07-29T06:30:16;1.88;;;1.38;;
39448;SDS011;25151;45.566;9.382;2022-07-29T06:33:17;2.67;;;1.60;;
39448;SDS011;25151;45.566;9.382;2022-07-29T06:36:19;2.50;;;1.92;;
39448;SDS011;25151;45.566;9.382;2022-07-29T06:39:19;4.28;;;2.10;;
39448;SDS011;25151;45.566;9.382;2022-07-29T06:42:20;6.22;;;2.05;;
39448;SDS011;25151;45.566;9.382;2022-07-29T06:45:21;6.90;;;2.03;;
39448;SDS011;25151;45.566;9.382;2022-07-29T06:48:22;8.05;;;1.98;;
39448;SDS011;25151;45.566;9.382;2022-07-29T06:51:22;6.65;;;2.38;;
39448;SDS011;25151;45.566;9.382;2022-07-29T06:54:59;9.50;;;2.83;;
39448;SDS011;25151;45.566;9.382;2022-07-29T06:57:59;45.95;;;4.90;;
39448;SDS011;25151;45.566;9.382;2022-07-29T07:01:01;23.45;;;3.08;;
39448;SDS011;25151;45.566;9.382;2022-07-29T07:04:04;21.02;;;3.42;;
39448;SDS011;25151;45.566;9.382;2022-07-29T07:07:05;6.97;;;2.83;;
39448;SDS011;25151;45.566;9.382;2022-07-29T07:10:06;10.20;;;2.80;;
39448;SDS011;25151;45.566;9.382;2022-07-29T07:13:06;17.08;;;3.65;;
39448;SDS011;25151;45.566;9.382;2022-07-29T07:16:07;12.38;;;3.47;;
39448;SDS011;25151;45.566;9.382;2022-07-29T07:19:08;12.00;;;3.70;;
39448;SDS011;25151;45.566;9.382;2022-07-29T07:22:09;12.45;;;3.22;;
39448;SDS011;25151;45.566;9.382;2022-07-29T07:25:10;12.20;;;2.83;;
39448;SDS011;25151;45.566;9.382;2022-07-29T07:28:13;5.97;;;2.85;;
39448;SDS011;25151;45.566;9.382;2022-07-29T07:31:13;5.95;;;3.10;;
39448;SDS011;25151;45.566;9.382;2022-07-29T07:34:14;5.25;;;2.78;;
39448;SDS011;25151;45.566;9.382;2022-07-29T07:37:14;6.50;;;2.70;;
39448;SDS011;25151;45.566;9.382;2022-07-29T07:40:15;6.93;;;2.88;;
39448;SDS011;25151;45.566;9.382;2022-07-29T07:43:16;9.77;;;2.83;;
39448;SDS011;25151;45.566;9.382;2022-07-29T07:46:16;5.55;;;2.17;;
39448;SDS011;25151;45.566;9.382;2022-07-29T07:49:17;6.03;;;2.83;;
39448;SDS011;25151;45.566;9.382;2022-07-29T07:52:18;7.18;;;2.97;;
39448;SDS011;25151;45.566;9.382;2022-07-29T07:55:20;7.38;;;2.53;;
39448;SDS011;25151;45.566;9.382;2022-07-29T07:58:20;7.60;;;2.97;;
39448;SDS011;25151;45.566;9.382;2022-07-29T08:01:21;7.43;;;2.72;;
39448;SDS011;25151;45.566;9.382;2022-07-29T08:04:23;6.72;;;3.13;;
39448;SDS011;25151;45.566;9.382;2022-07-29T08:07:24;9.15;;;3.00;;
39448;SDS011;25151;45.566;9.382;2022-07-29T08:10:25;6.15;;;2.85;;
39448;SDS011;25151;45.566;9.382;2022-07-29T08:13:44;9.18;;;3.05;;
39448;SDS011;25151;45.566;9.382;2022-07-29T08:16:46;6.45;;;2.38;;
39448;SDS011;25151;45.566;9.382;2022-07-29T08:19:48;7.25;;;2.80;;
39448;SDS011;25151;45.566;9.382;2022-07-29T08:22:51;8.75;;;2.55;;
39448;SDS011;25151;45.566;9.382;2022-07-29T08:25:52;8.73;;;2.90;;
39448;SDS011;25151;45.566;9.382;2022-07-29T08:28:53;9.80;;;3.08;;
39448;SDS011;25151;45.566;9.382;2022-07-29T08:31:53;9.90;;;3.47;;
39448;SDS011;25151;45.566;9.382;2022-07-29T08:34:54;11.13;;;3.22;;
39448;SDS011;25151;45.566;9.382;2022-07-29T08:37:55;13.68;;;3.13;;
39448;SDS011;25151;45.566;9.382;2022-07-29T08:40:59;11.63;;;3.28;;
39448;SDS011;25151;45.566;9.382;2022-07-29T08:44:02;12.25;;;3.42;;
39448;SDS011;25151;45.566;9.382;2022-07-29T08:47:03;14.20;;;4.05;;
39448;SDS011;25151;45.566;9.382;2022-07-29T08:50:04;15.10;;;3.72;;
39448;SDS011;25151;45.566;9.382;2022-07-29T08:53:10;12.10;;;3.53;;
39448;SDS011;25151;45.566;9.382;2022-07-29T08:56:12;12.02;;;3.28;;
39448;SDS011;25151;45.566;9.382;2022-07-29T08:59:14;10.57;;;3.25;;
39448;SDS011;25151;45.566;9.382;2022-07-29T09:02:21;13.60;;;3.08;;
39448;SDS011;25151;45.566;9.382;2022-07-29T09:05:23;10.05;;;2.80;;
39448;SDS011;25151;45.566;9.382;2022-07-29T09:08:24;13.98;;;4.35;;
39448;SDS011;25151;45.566;9.382;2022-07-29T09:11:25;15.50;;;4.25;;
39448;SDS011;25151;45.566;9.382;2022-07-29T09:14:27;21.85;;;3.65;;
39448;SDS011;25151;45.566;9.382;2022-07-29T09:17:47;11.73;;;3.38;;
39448;SDS011;25151;45.566;9.382;2022-07-29T09:20:52;14.52;;;3.28;;
39448;SDS011;25151;45.566;9.382;2022-07-29T09:24:12;12.75;;;2.83;;
39448;SDS011;25151;45.566;9.382;2022-07-29T09:30:22;19.42;;;3.70;;
39448;SDS011;25151;45.566;9.382;2022-07-29T09:33:23;20.00;;;4.18;;
39448;SDS011;25151;45.566;9.382;2022-07-29T09:36:30;13.30;;;3.30;;
39448;SDS011;25151;45.566;9.382;2022-07-29T09:39:38;10.55;;;3.38;;
39448;SDS011;25151;45.566;9.382;2022-07-29T09:42:46;9.05;;;2.80;;
39448;SDS011;25151;45.566;9.382;2022-07-29T09:45:47;13.40;;;3.00;;
39448;SDS011;25151;45.566;9.382;2022-07-29T09:55:11;11.57;;;3.63;;
39448;SDS011;25151;45.566;9.382;2022-07-29T09:58:16;13.43;;;3.05;;
39448;SDS011;25151;45.566;9.382;2022-07-29T10:01:27;13.13;;;3.85;;
39448;SDS011;25151;45.566;9.382;2022-07-29T10:04:38;10.48;;;3.08;;
39448;SDS011;25151;45.566;9.382;2022-07-29T10:07:43;15.55;;;3.08;;
39448;SDS011;25151;45.566;9.382;2022-07-29T10:10:44;14.68;;;4.50;;
39448;SDS011;25151;45.566;9.382;2022-07-29T10:13:47;10.98;;;2.97;;
39448;SDS011;25151;45.566;9.382;2022-07-29T10:16:48;20.88;;;3.78;;
39448;SDS011;25151;45.566;9.382;2022-07-29T10:19:49;14.25;;;4.18;;
39448;SDS011;25151;45.566;9.382;2022-07-29T10:22:50;17.27;;;4.18;;
39448;SDS011;25151;45.566;9.382;2022-07-29T10:25:52;14.45;;;4.03;;
39448;SDS011;25151;45.566;9.382;2022-07-29T10:28:53;13.07;;;3.80;;
39448;SDS011;25151;45.566;9.382;2022-07-29T10:31:59;19.02;;;3.20;;
39448;SDS011;25151;45.566;9.382;2022-07-29T10:35:15;10.60;;;2.92;;
39448;SDS011;25151;45.566;9.382;2022-07-29T10:42:31;17.63;;;3.28;;
39448;SDS011;25151;45.566;9.382;2022-07-29T10:45:18;11.25;;;2.67;;
39448;SDS011;25151;45.566;9.382;2022-07-29T10:48:19;10.60;;;2.60;;
39448;SDS011;25151;45.566;9.382;2022-07-29T10:51:20;13.25;;;2.72;;
39448;SDS011;25151;45.566;9.382;2022-07-29T10:57:36;12.82;;;3.03;;
39448;SDS011;25151;45.566;9.382;2022-07-29T11:00:37;11.57;;;3.00;;
39448;SDS011;25151;45.566;9.382;2022-07-29T11:03:47;10.73;;;3.28;;
39448;SDS011;25151;45.566;9.382;2022-07-29T11:13:28;7.50;;;2.78;;
39448;SDS011;25151;45.566;9.382;2022-07-29T11:17:00;14.27;;;3.23;;
39448;SDS011;25151;45.566;9.382;2022-07-29T11:23:44;11.38;;;3.60;;
39448;SDS011;25151;45.566;9.382;2022-07-29T11:27:05;10.90;;;2.40;;
39448;SDS011;25151;45.566;9.382;2022-07-29T11:30:20;9.20;;;2.30;;
39448;SDS011;25151;45.566;9.382;2022-07-29T11:33:30;9.38;;;2.67;;
39448;SDS011;25151;45.566;9.382;2022-07-29T11:36:32;15.50;;;2.30;;
39448;SDS011;25151;45.566;9.382;2022-07-29T11:39:33;9.30;;;4.53;;
39448;SDS011;25151;45.566;9.382;2022-07-29T11:45:45;9.02;;;3.10;;
39448;SDS011;25151;45.566;9.382;2022-07-29T11:51:53;6.45;;;2.00;;
39448;SDS011;25151;45.566;9.382;2022-07-29T11:54:56;9.02;;;2.50;;
39448;SDS011;25151;45.566;9.382;2022-07-29T11:58:00;6.88;;;2.45;;
39448;SDS011;25151;45.566;9.382;2022-07-29T12:01:00;5.30;;;2.08;;
39448;SDS011;25151;45.566;9.382;2022-07-29T12:04:02;7.47;;;2.83;;
39448;SDS011;25151;45.566;9.382;2022-07-29T12:07:04;7.50;;;2.67;;
39448;SDS011;25151;45.566;9.382;2022-07-29T12:10:05;7.75;;;2.72;;
39448;SDS011;25151;45.566;9.382;2022-07-29T12:13:06;7.32;;;2.20;;
39448;SDS011;25151;45.566;9.382;2022-07-29T12:16:07;6.32;;;2.38;;
39448;SDS011;25151;45.566;9.382;2022-07-29T12:19:08;12.10;;;2.80;;
39448;SDS011;25151;45.566;9.382;2022-07-29T12:22:09;6.50;;;2.10;;
39448;SDS011;25151;45.566;9.382;2022-07-29T12:25:10;11.70;;;2.40;;
39448;SDS011;25151;45.566;9.382;2022-07-29T12:28:16;5.88;;;2.40;;
39448;SDS011;25151;45.566;9.382;2022-07-29T12:31:18;5.13;;;2.05;;
39448;SDS011;25151;45.566;9.382;2022-07-29T12:34:20;5.63;;;2.30;;
39448;SDS011;25151;45.566;9.382;2022-07-29T12:37:23;9.43;;;2.17;;
39448;SDS011;25151;45.566;9.382;2022-07-29T12:40:23;7.05;;;2.30;;
39448;SDS011;25151;45.566;9.382;2022-07-29T12:43:24;7.53;;;1.83;;
39448;SDS011;25151;45.566;9.382;2022-07-29T12:46:25;7.28;;;2.38;;
39448;SDS011;25151;45.566;9.382;2022-07-29T12:49:26;6.88;;;2.25;;
39448;SDS011;25151;45.566;9.382;2022-07-29T12:52:33;7.35;;;1.73;;
39448;SDS011;25151;45.566;9.382;2022-07-29T12:55:44;4.70;;;2.00;;
39448;SDS011;25151;45.566;9.382;2022-07-29T12:58:51;7.03;;;2.38;;
39448;SDS011;25151;45.566;9.382;2022-07-29T13:01:52;3.78;;;1.98;;
39448;SDS011;25151;45.566;9.382;2022-07-29T13:05:22;4.78;;;2.13;;
39448;SDS011;25151;45.566;9.382;2022-07-29T13:08:24;8.18;;;2.40;;
39448;SDS011;25151;45.566;9.382;2022-07-29T13:11:32;7.93;;;2.35;;
39448;SDS011;25151;45.566;9.382;2022-07-29T13:14:42;5.65;;;1.90;;
39448;SDS011;25151;45.566;9.382;2022-07-29T13:17:47;7.30;;;2.28;;
39448;SDS011;25151;45.566;9.382;2022-07-29T13:20:48;9.68;;;3.17;;
39448;SDS011;25151;45.566;9.382;2022-07-29T13:23:49;8.20;;;2.30;;
39448;SDS011;25151;45.566;9.382;2022-07-29T13:26:49;5.68;;;1.92;;
39448;SDS011;25151;45.566;9.382;2022-07-29T13:29:55;6.68;;;1.83;;
39448;SDS011;25151;45.566;9.382;2022-07-29T13:32:57;6.80;;;1.83;;
39448;SDS011;25151;45.566;9.382;2022-07-29T13:35:58;9.60;;;2.10;;
39448;SDS011;25151;45.566;9.382;2022-07-29T13:38:59;9.82;;;2.83;;
39448;SDS011;25151;45.566;9.382;2022-07-29T13:42:04;7.20;;;2.05;;
39448;SDS011;25151;45.566;9.382;2022-07-29T13:45:05;9.43;;;1.95;;
39448;SDS011;25151;45.566;9.382;2022-07-29T13:48:07;7.70;;;1.95;;
39448;SDS011;25151;45.566;9.382;2022-07-29T13:51:08;5.63;;;2.00;;
39448;SDS011;25151;45.566;9.382;2022-07-29T13:54:11;6.95;;;2.33;;
39448;SDS011;25151;45.566;9.382;2022-07-29T13:57:13;14.05;;;2.70;;
39448;SDS011;25151;45.566;9.382;2022-07-29T14:00:14;13.02;;;2.60;;
39448;SDS011;25151;45.566;9.382;2022-07-29T14:03:16;11.10;;;2.80;;
39448;SDS011;25151;45.566;9.382;2022-07-29T14:06:17;6.07;;;2.03;;
39448;SDS011;25151;45.566;9.382;2022-07-29T14:09:17;6.93;;;2.15;;
39448;SDS011;25151;45.566;9.382;2022-07-29T14:12:19;5.30;;;1.92;;
39448;SDS011;25151;45.566;9.382;2022-07-29T14:15:21;8.05;;;2.22;;
39448;SDS011;25151;45.566;9.382;2022-07-29T14:18:24;9.43;;;2.65;;
39448;SDS011;25151;45.566;9.382;2022-07-29T14:21:26;11.68;;;3.10;;
39448;SDS011;25151;45.566;9.382;2022-07-29T14:24:29;7.32;;;2.05;;
39448;SDS011;25151;45.566;9.382;2022-07-29T14:27:29;16.80;;;2.15;;
39448;SDS011;25151;45.566;9.382;2022-07-29T14:30:30;10.13;;;2.45;;
39448;SDS011;25151;45.566;9.382;2022-07-29T14:33:31;7.57;;;1.95;;
39448;SDS011;25151;45.566;9.382;2022-07-29T14:36:32;8.55;;;2.50;;
39448;SDS011;25151;45.566;9.382;2022-07-29T14:39:33;6.90;;;1.95;;
39448;SDS011;25151;45.566;9.382;2022-07-29T14:42:36;10.18;;;1.92;;
39448;SDS011;25151;45.566;9.382;2022-07-29T14:45:38;11.15;;;2.30;;
39448;SDS011;25151;45.566;9.382;2022-07-29T14:48:39;4.93;;;1.80;;
39448;SDS011;25151;45.566;9.382;2022-07-29T14:51:39;5.68;;;2.08;;
39448;SDS011;25151;45.566;9.382;2022-07-29T14:54:40;6.22;;;2.45;;
39448;SDS011;25151;45.566;9.382;2022-07-29T14:57:42;7.45;;;3.13;;
39448;SDS011;25151;45.566;9.382;2022-07-29T15:00:42;6.80;;;2.00;;
39448;SDS011;25151;45.566;9.382;2022-07-29T15:03:43;6.07;;;2.42;;
39448;SDS011;25151;45.566;9.382;2022-07-29T15:06:44;8.55;;;2.25;;
39448;SDS011;25151;45.566;9.382;2022-07-29T15:09:46;5.80;;;1.90;;
39448;SDS011;25151;45.566;9.382;2022-07-29T15:12:47;7.00;;;2.10;;
39448;SDS011;25151;45.566;9.382;2022-07-29T15:15:49;6.82;;;1.73;;
39448;SDS011;25151;45.566;9.382;2022-07-29T15:18:50;8.48;;;2.15;;
39448;SDS011;25151;45.566;9.382;2022-07-29T15:21:50;5.53;;;2.00;;
39448;SDS011;25151;45.566;9.382;2022-07-29T15:24:51;7.05;;;1.95;;
39448;SDS011;25151;45.566;9.382;2022-07-29T15:27:52;9.60;;;1.80;;
39448;SDS011;25151;45.566;9.382;2022-07-29T15:30:56;9.05;;;2.03;;
39448;SDS011;25151;45.566;9.382;2022-07-29T15:33:57;6.40;;;2.13;;
39448;SDS011;25151;45.566;9.382;2022-07-29T15:37:02;5.03;;;2.47;;
39448;SDS011;25151;45.566;9.382;2022-07-29T15:40:08;8.70;;;2.50;;
39448;SDS011;25151;45.566;9.382;2022-07-29T15:43:09;7.50;;;1.83;;
39448;SDS011;25151;45.566;9.382;2022-07-29T15:46:14;13.45;;;2.58;;
39448;SDS011;25151;45.566;9.382;2022-07-29T15:49:37;4.20;;;2.22;;
39448;SDS011;25151;45.566;9.382;2022-07-29T15:52:40;7.25;;;2.55;;
39448;SDS011;25151;45.566;9.382;2022-07-29T15:55:41;5.25;;;2.15;;
39448;SDS011;25151;45.566;9.382;2022-07-29T15:58:44;6.10;;;2.13;;
39448;SDS011;25151;45.566;9.382;2022-07-29T16:01:46;8.93;;;2.45;;
39448;SDS011;25151;45.566;9.382;2022-07-29T16:04:53;10.95;;;2.40;;
39448;SDS011;25151;45.566;9.382;2022-07-29T16:07:53;8.40;;;1.92;;
39448;SDS011;25151;45.566;9.382;2022-07-29T16:10:55;7.95;;;2.22;;
39448;SDS011;25151;45.566;9.382;2022-07-29T16:13:57;11.07;;;2.40;;
39448;SDS011;25151;45.566;9.382;2022-07-29T16:16:59;7.68;;;2.20;;
39448;SDS011;25151;45.566;9.382;2022-07-29T16:20:03;7.13;;;2.30;;
39448;SDS011;25151;45.566;9.382;2022-07-29T16:23:08;8.38;;;2.17;;
39448;SDS011;25151;45.566;9.382;2022-07-29T16:26:11;12.52;;;2.75;;
39448;SDS011;25151;45.566;9.382;2022-07-29T16:29:12;6.13;;;2.65;;
39448;SDS011;25151;45.566;9.382;2022-07-29T16:32:14;9.65;;;2.22;;
39448;SDS011;25151;45.566;9.382;2022-07-29T16:35:14;9.10;;;2.08;;
39448;SDS011;25151;45.566;9.382;2022-07-29T16:38:15;7.07;;;2.25;;
39448;SDS011;25151;45.566;9.382;2022-07-29T16:41:15;6.38;;;2.33;;
39448;SDS011;25151;45.566;9.382;2022-07-29T16:44:16;6.80;;;1.77;;
39448;SDS011;25151;45.566;9.382;2022-07-29T16:47:16;8.77;;;2.42;;
39448;SDS011;25151;45.566;9.382;2022-07-29T16:50:17;5.57;;;1.90;;
39448;SDS011;25151;45.566;9.382;2022-07-29T16:53:19;4.95;;;1.88;;
39448;SDS011;25151;45.566;9.382;2022-07-29T16:56:19;6.75;;;2.22;;
39448;SDS011;25151;45.566;9.382;2022-07-29T16:59:20;3.92;;;1.73;;
39448;SDS011;25151;45.566;9.382;2022-07-29T17:02:21;5.05;;;2.25;;
39448;SDS011;25151;45.566;9.382;2022-07-29T17:05:22;7.47;;;2.28;;
39448;SDS011;25151;45.566;9.382;2022-07-29T17:08:22;6.20;;;1.70;;
39448;SDS011;25151;45.566;9.382;2022-07-29T17:11:25;9.07;;;2.42;;
39448;SDS011;25151;45.566;9.382;2022-07-29T17:14:27;8.25;;;2.13;;
39448;SDS011;25151;45.566;9.382;2022-07-29T17:17:28;5.75;;;2.30;;
39448;SDS011;25151;45.566;9.382;2022-07-29T17:20:29;5.65;;;1.88;;
39448;SDS011;25151;45.566;9.382;2022-07-29T17:23:32;6.22;;;2.13;;
39448;SDS011;25151;45.566;9.382;2022-07-29T17:26:32;4.75;;;1.98;;
39448;SDS011;25151;45.566;9.382;2022-07-29T17:29:33;7.07;;;2.10;;
39448;SDS011;25151;45.566;9.382;2022-07-29T17:32:36;5.43;;;2.40;;
39448;SDS011;25151;45.566;9.382;2022-07-29T17:35:38;4.85;;;2.33;;
39448;SDS011;25151;45.566;9.382;2022-07-29T17:39:02;5.15;;;1.77;;
39448;SDS011;25151;45.566;9.382;2022-07-29T17:42:08;6.72;;;1.83;;
39448;SDS011;25151;45.566;9.382;2022-07-29T17:45:09;6.43;;;2.13;;
39448;SDS011;25151;45.566;9.382;2022-07-29T17:48:10;8.48;;;2.17;;
39448;SDS011;25151;45.566;9.382;2022-07-29T17:51:11;4.10;;;2.15;;
39448;SDS011;25151;45.566;9.382;2022-07-29T17:54:12;5.85;;;1.75;;
39448;SDS011;25151;45.566;9.382;2022-07-29T17:57:12;4.70;;;2.17;;
39448;SDS011;25151;45.566;9.382;2022-07-29T18:00:13;6.22;;;2.25;;
39448;SDS011;25151;45.566;9.382;2022-07-29T18:03:16;7.00;;;2.65;;
39448;SDS011;25151;45.566;9.382;2022-07-29T18:06:16;9.05;;;2.45;;
39448;SDS011;25151;45.566;9.382;2022-07-29T18:09:17;6.78;;;1.85;;
39448;SDS011;25151;45.566;9.382;2022-07-29T18:12:17;6.82;;;2.45;;
39448;SDS011;25151;45.566;9.382;2022-07-29T18:15:18;5.68;;;2.38;;
39448;SDS011;25151;45.566;9.382;2022-07-29T18:18:18;5.07;;;2.00;;
39448;SDS011;25151;45.566;9.382;2022-07-29T18:21:19;7.15;;;2.10;;
39448;SDS011;25151;45.566;9.382;2022-07-29T18:24:20;12.70;;;2.67;;
39448;SDS011;25151;45.566;9.382;2022-07-29T18:27:24;7.72;;;2.20;;
39448;SDS011;25151;45.566;9.382;2022-07-29T18:30:25;5.50;;;1.65;;
39448;SDS011;25151;45.566;9.382;2022-07-29T18:33:25;6.47;;;2.22;;
39448;SDS011;25151;45.566;9.382;2022-07-29T18:36:26;5.70;;;2.30;;
39448;SDS011;25151;45.566;9.382;2022-07-29T18:39:27;4.57;;;1.75;;
39448;SDS011;25151;45.566;9.382;2022-07-29T18:42:28;5.00;;;1.85;;
39448;SDS011;25151;45.566;9.382;2022-07-29T18:45:28;3.85;;;1.67;;
39448;SDS011;25151;45.566;9.382;2022-07-29T18:48:30;5.68;;;1.73;;
39448;SDS011;25151;45.566;9.382;2022-07-29T18:51:32;7.25;;;1.80;;
39448;SDS011;25151;45.566;9.382;2022-07-29T18:54:33;4.75;;;1.77;;
39448;SDS011;25151;45.566;9.382;2022-07-29T18:57:33;6.07;;;2.00;;
39448;SDS011;25151;45.566;9.382;2022-07-29T19:00:34;5.60;;;1.70;;
39448;SDS011;25151;45.566;9.382;2022-07-29T19:03:34;3.75;;;1.45;;
39448;SDS011;25151;45.566;9.382;2022-07-29T19:06:35;3.75;;;1.48;;
39448;SDS011;25151;45.566;9.382;2022-07-29T19:09:36;5.50;;;1.75;;
39448;SDS011;25151;45.566;9.382;2022-07-29T19:12:36;6.10;;;1.95;;